Time;durP1;ratioP1;P1;durP2;ratioP2;P2;SDS_P1;SDS_P2;PMS_P1;PMS_P2;Temp;Humidity;BMP_temperature;BMP_pressure;BME280_temperature;BME280_humidity;BME280_pressure;Samples;Min_cycle;Max_cycle;Signal;HPM_P1;HPM_P2
2022/07/24 00:01:33;;;;;;;3.83;3.47;;;11.50;99.90;;;;;;5084331;28;20222;-91
2022/07/24 00:04:00;;;;;;;4.77;3.60;;;11.50;99.90;;;;;;5092994;28;20266;-92
2022/07/24 00:06:27;;;;;;;5.13;3.30;;;11.40;99.90;;;;;;5073493;28;20278;-91
2022/07/24 00:08:54;;;;;;;4.83;3.63;;;11.40;99.90;;;;;;5077846;28;20237;-91
2022/07/24 00:11:20;;;;;;;4.50;3.50;;;11.30;99.90;;;;;;5092941;28;20545;-92
2022/07/24 00:13:48;;;;;;;6.37;3.80;;;11.30;99.90;;;;;;5076973;28;20758;-92
2022/07/24 00:16:15;;;;;;;5.03;3.70;;;11.30;99.90;;;;;;5081364;28;20239;-92
2022/07/24 00:18:42;;;;;;;4.27;3.57;;;11.20;99.90;;;;;;5104998;28;20236;-91
2022/07/24 00:21:09;;;;;;;3.93;3.53;;;11.20;99.90;;;;;;5078463;28;20243;-92
2022/07/24 00:23:35;;;;;;;6.00;3.87;;;11.20;99.90;;;;;;5079190;28;20301;-92
2022/07/24 00:26:02;;;;;;;5.17;3.90;;;11.20;99.90;;;;;;5101903;28;20314;-91
2022/07/24 00:28:29;;;;;;;5.27;3.90;;;11.10;99.90;;;;;;5082663;28;21040;-92
2022/07/24 00:30:57;;;;;;;4.10;3.70;;;11.10;99.90;;;;;;5083072;28;20522;-92
2022/07/24 00:33:24;;;;;;;6.90;4.30;;;11.10;99.90;;;;;;5077281;28;20247;-91
2022/07/24 00:35:51;;;;;;;4.57;3.93;;;11.00;99.90;;;;;;5079394;28;20707;-91
2022/07/24 00:38:18;;;;;;;4.67;4.20;;;11.00;99.90;;;;;;5096158;28;20248;-91
2022/07/24 00:40:45;;;;;;;6.57;4.80;;;11.00;99.90;;;;;;5079072;28;20231;-92
2022/07/24 00:43:12;;;;;;;5.00;4.13;;;11.00;99.90;;;;;;5077208;28;20248;-92
2022/07/24 00:45:39;;;;;;;4.80;4.30;;;11.00;99.90;;;;;;5100793;28;20242;-91
2022/07/24 00:48:08;;;;;;;7.03;4.13;;;10.90;99.90;;;;;;5094993;28;20349;-91
2022/07/24 00:50:36;;;;;;;5.83;4.33;;;10.90;99.90;;;;;;5087133;28;20259;-91
2022/07/24 00:53:03;;;;;;;4.47;3.80;;;10.90;99.90;;;;;;5091120;28;20239;-91
2022/07/24 00:55:30;;;;;;;5.40;3.83;;;10.90;99.90;;;;;;5094724;28;20224;-91
2022/07/24 00:57:57;;;;;;;5.23;3.53;;;10.90;99.90;;;;;;5079341;28;20222;-92
2022/07/24 01:00:24;;;;;;;6.13;3.70;;;10.80;99.90;;;;;;5096408;28;20235;-91
2022/07/24 01:02:51;;;;;;;5.03;4.33;;;10.80;99.90;;;;;;5083659;28;20267;-91
2022/07/24 01:05:20;;;;;;;6.03;3.70;;;10.80;99.90;;;;;;5083865;28;20318;-91
2022/07/24 01:07:47;;;;;;;6.37;4.00;;;10.80;99.90;;;;;;5087678;28;20535;-92
2022/07/24 01:10:14;;;;;;;4.27;3.50;;;10.70;99.90;;;;;;5080152;28;20219;-91
2022/07/24 01:12:42;;;;;;;4.93;3.33;;;10.70;99.90;;;;;;5086430;28;20207;-91
2022/07/24 01:15:11;;;;;;;5.60;3.97;;;10.70;99.90;;;;;;5083838;28;20447;-91
2022/07/24 01:17:42;;;;;;;4.40;4.00;;;10.70;99.90;;;;;;5097991;28;20290;-91
2022/07/24 01:20:10;;;;;;;8.50;4.77;;;10.60;99.90;;;;;;5083719;28;20221;-91
2022/07/24 01:22:38;;;;;;;6.73;5.23;;;10.60;99.90;;;;;;5084493;28;20236;-91
2022/07/24 01:25:06;;;;;;;5.77;4.37;;;10.60;99.90;;;;;;5079279;28;20329;-91
2022/07/24 01:27:33;;;;;;;7.87;4.20;;;10.60;99.90;;;;;;5072237;28;20233;-91
2022/07/24 01:29:59;;;;;;;4.33;3.93;;;10.60;99.90;;;;;;5077660;28;20851;-91
2022/07/24 01:32:26;;;;;;;5.07;4.57;;;10.60;99.90;;;;;;5093835;28;20236;-92
2022/07/24 01:34:53;;;;;;;6.73;4.77;;;10.50;99.90;;;;;;5074879;28;20340;-92
2022/07/24 01:37:19;;;;;;;5.43;4.70;;;10.50;99.90;;;;;;5095787;28;20337;-91
2022/07/24 01:39:47;;;;;;;6.83;5.03;;;10.50;99.90;;;;;;5078251;28;20226;-92
2022/07/24 01:42:14;;;;;;;5.70;5.10;;;10.50;99.90;;;;;;5079658;28;20219;-92
2022/07/24 01:44:41;;;;;;;5.60;4.73;;;10.50;99.90;;;;;;5098520;28;20305;-93
2022/07/24 01:47:08;;;;;;;7.13;4.83;;;10.50;99.90;;;;;;5098396;28;20233;-92
2022/07/24 01:49:35;;;;;;;5.53;4.60;;;10.40;99.90;;;;;;5083506;28;20231;-92
2022/07/24 01:52:01;;;;;;;5.20;4.63;;;10.50;99.90;;;;;;5072723;28;20233;-92
2022/07/24 01:54:28;;;;;;;7.03;4.90;;;10.40;99.90;;;;;;5070252;28;20307;-92
2022/07/24 01:56:56;;;;;;;5.77;4.90;;;10.40;99.90;;;;;;5074158;28;20223;-92
2022/07/24 01:59:23;;;;;;;5.20;4.50;;;10.40;99.90;;;;;;5085042;28;20305;-92
2022/07/24 02:01:50;;;;;;;5.30;4.80;;;10.40;99.90;;;;;;5090788;28;20230;-92
2022/07/24 02:04:16;;;;;;;6.20;4.53;;;10.40;99.90;;;;;;5071764;28;21003;-92
2022/07/24 02:06:43;;;;;;;5.13;4.63;;;10.40;99.90;;;;;;5077942;28;20292;-93
2022/07/24 02:09:10;;;;;;;5.30;4.53;;;10.40;99.90;;;;;;5089866;28;22168;-91
2022/07/24 02:11:37;;;;;;;5.77;3.90;;;10.30;99.90;;;;;;5084066;28;20321;-92
2022/07/24 02:14:06;;;;;;;6.00;4.30;;;10.30;99.90;;;;;;5084515;28;20227;-92
2022/07/24 02:16:33;;;;;;;5.50;4.90;;;10.30;99.90;;;;;;5075909;28;20222;-91
2022/07/24 02:19:00;;;;;;;5.43;4.73;;;10.30;99.90;;;;;;5077948;28;20238;-92
2022/07/24 02:21:28;;;;;;;5.40;4.70;;;10.30;99.90;;;;;;5103837;28;20229;-92
2022/07/24 02:23:54;;;;;;;6.10;4.47;;;10.20;99.90;;;;;;5088675;28;20221;-93
2022/07/24 02:26:21;;;;;;;5.23;4.07;;;10.30;99.90;;;;;;5086940;28;20241;-92
2022/07/24 02:28:48;;;;;;;9.23;5.67;;;10.20;99.90;;;;;;5108732;27;20207;-92
2022/07/24 02:31:16;;;;;;;6.93;4.73;;;10.20;99.90;;;;;;5098463;28;20226;-91
2022/07/24 02:33:43;;;;;;;5.53;4.83;;;10.20;99.90;;;;;;5096742;28;20497;-92
2022/07/24 02:36:10;;;;;;;5.70;4.50;;;10.20;99.90;;;;;;5110640;28;20206;-92
2022/07/24 02:38:36;;;;;;;5.70;4.77;;;10.30;99.90;;;;;;5093571;28;20210;-91
2022/07/24 02:41:03;;;;;;;6.00;4.80;;;10.20;99.90;;;;;;5112527;28;20246;-92
2022/07/24 02:43:30;;;;;;;5.50;4.90;;;10.10;99.90;;;;;;5091800;28;20213;-91
2022/07/24 02:45:57;;;;;;;7.97;5.80;;;10.20;99.90;;;;;;5111479;28;20232;-92
2022/07/24 02:48:25;;;;;;;7.00;5.53;;;10.10;99.90;;;;;;5090369;28;20231;-92
2022/07/24 02:50:52;;;;;;;9.13;6.20;;;10.10;99.90;;;;;;5110576;28;20237;-92
2022/07/24 02:53:19;;;;;;;8.00;5.20;;;10.10;99.90;;;;;;5094153;28;20245;-92
2022/07/24 02:55:46;;;;;;;5.97;4.93;;;10.10;99.90;;;;;;5094127;28;20226;-90
2022/07/24 02:58:13;;;;;;;7.00;5.43;;;10.10;99.90;;;;;;5095706;28;20431;-91
2022/07/24 03:00:39;;;;;;;5.90;5.20;;;10.10;99.90;;;;;;5090358;28;20274;-91
2022/07/24 03:03:06;;;;;;;6.77;5.10;;;10.10;99.90;;;;;;5089080;28;20242;-92
2022/07/24 03:05:34;;;;;;;8.40;5.07;;;10.10;99.90;;;;;;5107820;28;20225;-91
2022/07/24 03:08:01;;;;;;;8.03;5.60;;;10.10;99.90;;;;;;5094504;28;20237;-91
2022/07/24 03:10:28;;;;;;;5.90;5.30;;;10.10;99.90;;;;;;5093122;28;20229;-91
2022/07/24 03:12:55;;;;;;;5.97;4.83;;;10.10;99.90;;;;;;5096365;28;20290;-91
2022/07/24 03:15:21;;;;;;;7.00;5.47;;;10.10;99.90;;;;;;5091339;28;20222;-92
2022/07/24 03:17:50;;;;;;;6.23;4.63;;;10.10;99.90;;;;;;5109972;28;20222;-92
2022/07/24 03:20:16;;;;;;;6.33;4.93;;;10.00;99.90;;;;;;5099692;28;20238;-91
2022/07/24 03:22:45;;;;;;;6.43;5.03;;;10.00;99.90;;;;;;5091674;28;20218;-91
2022/07/24 03:25:11;;;;;;;6.33;5.20;;;10.10;99.90;;;;;;5083407;28;20256;-91
2022/07/24 03:27:38;;;;;;;6.83;5.27;;;10.00;99.90;;;;;;5092027;28;20278;-92
2022/07/24 03:30:07;;;;;;;5.40;4.87;;;10.00;99.90;;;;;;5072737;28;20687;-92
2022/07/24 03:32:33;;;;;;;6.93;5.77;;;10.00;99.90;;;;;;5071216;28;20226;-92
2022/07/24 03:35:00;;;;;;;7.03;5.30;;;10.10;99.90;;;;;;5091890;28;20985;-92
2022/07/24 03:37:27;;;;;;;9.67;5.53;;;10.00;99.90;;;;;;5077473;28;20293;-91
2022/07/24 03:39:56;;;;;;;6.17;5.30;;;10.00;99.90;;;;;;5073016;28;20345;-92
2022/07/24 03:42:22;;;;;;;6.73;5.40;;;10.10;99.90;;;;;;5067563;28;20242;-92
2022/07/24 03:44:49;;;;;;;8.23;5.73;;;10.10;99.90;;;;;;5075635;28;20223;-92
2022/07/24 03:47:16;;;;;;;8.87;5.47;;;10.10;99.90;;;;;;5073754;28;20487;-93
2022/07/24 03:49:43;;;;;;;6.80;5.30;;;10.10;99.90;;;;;;5072703;28;20229;-93
2022/07/24 03:52:10;;;;;;;9.07;5.93;;;10.10;99.90;;;;;;5091187;28;20285;-92
2022/07/24 03:54:37;;;;;;;8.17;5.23;;;10.10;99.90;;;;;;5072137;28;20229;-92
2022/07/24 03:57:06;;;;;;;6.33;4.83;;;10.10;99.90;;;;;;5077359;28;20218;-91
2022/07/24 03:59:32;;;;;;;6.57;5.43;;;10.10;99.90;;;;;;5072768;28;20223;-91
2022/07/24 04:01:59;;;;;;;8.40;5.37;;;10.20;99.90;;;;;;5069371;28;20308;-91
2022/07/24 04:04:26;;;;;;;6.03;4.90;;;10.20;99.90;;;;;;5081217;28;20222;-93
2022/07/24 04:06:53;;;;;;;7.73;5.60;;;10.20;99.90;;;;;;5086436;28;20242;-92
2022/07/24 04:09:20;;;;;;;7.63;5.53;;;10.20;99.90;;;;;;5076401;28;20229;-92
2022/07/24 04:11:47;;;;;;;10.47;5.10;;;10.30;99.90;;;;;;5078296;28;20282;-91
2022/07/24 04:14:15;;;;;;;5.87;5.27;;;10.30;99.90;;;;;;5076589;28;20229;-92
2022/07/24 04:16:42;;;;;;;9.13;5.33;;;10.30;99.90;;;;;;5075379;28;20771;-92
2022/07/24 04:19:08;;;;;;;7.60;5.40;;;10.30;99.90;;;;;;5072719;28;20802;-92
2022/07/24 04:21:35;;;;;;;5.77;5.03;;;10.40;99.90;;;;;;5077271;28;20223;-91
2022/07/24 04:24:02;;;;;;;7.53;5.20;;;10.40;99.90;;;;;;5090242;28;20222;-92
2022/07/24 04:26:29;;;;;;;8.97;5.40;;;10.40;99.90;;;;;;5077146;28;20230;-92
2022/07/24 04:28:55;;;;;;;6.83;5.50;;;10.40;99.90;;;;;;5074581;28;20229;-92
2022/07/24 04:31:24;;;;;;;7.50;5.60;;;10.50;99.90;;;;;;5071544;28;20277;-91
2022/07/24 04:33:50;;;;;;;6.33;5.07;;;10.50;99.90;;;;;;5090040;28;20223;-91
2022/07/24 04:36:17;;;;;;;8.13;5.70;;;10.60;99.90;;;;;;5071591;28;20246;-92
2022/07/24 04:38:44;;;;;;;6.53;5.80;;;10.60;99.90;;;;;;5089951;28;20301;-91
2022/07/24 04:41:11;;;;;;;5.60;5.00;;;10.70;99.90;;;;;;5078520;28;20246;-92
2022/07/24 04:43:38;;;;;;;7.60;5.40;;;10.70;99.90;;;;;;5099859;28;20216;-91
2022/07/24 04:46:05;;;;;;;7.00;5.40;;;10.70;99.90;;;;;;5096883;28;20252;-91
2022/07/24 04:48:34;;;;;;;8.33;5.97;;;10.70;99.90;;;;;;5082695;28;20227;-92
2022/07/24 04:51:00;;;;;;;10.83;5.13;;;10.80;99.90;;;;;;5076624;28;20253;-90
2022/07/24 04:53:29;;;;;;;8.00;5.63;;;10.80;99.90;;;;;;5079385;28;20223;-91
2022/07/24 04:55:56;;;;;;;8.60;5.23;;;10.90;99.90;;;;;;5098812;28;20227;-92
2022/07/24 04:58:23;;;;;;;7.67;5.67;;;11.00;99.90;;;;;;5093236;28;20512;-92
2022/07/24 05:00:49;;;;;;;7.27;5.40;;;11.00;99.90;;;;;;5096653;28;20222;-90
2022/07/24 05:03:16;;;;;;;8.10;5.23;;;11.10;99.90;;;;;;5095890;28;20280;-93
2022/07/24 05:05:44;;;;;;;8.03;5.60;;;11.10;99.90;;;;;;5079487;28;20234;-92
2022/07/24 05:08:11;;;;;;;7.23;5.10;;;11.20;99.90;;;;;;5092077;28;20215;-91
2022/07/24 05:10:38;;;;;;;5.57;4.90;;;11.30;99.90;;;;;;5082401;28;20230;-92
2022/07/24 05:13:05;;;;;;;8.43;5.20;;;11.30;99.90;;;;;;5082173;28;20236;-91
2022/07/24 05:15:31;;;;;;;6.10;4.90;;;11.40;99.90;;;;;;5086875;28;20207;-90
2022/07/24 05:17:58;;;;;;;7.33;4.43;;;11.40;99.90;;;;;;5078973;28;20223;-92
2022/07/24 05:20:26;;;;;;;6.47;4.40;;;11.50;99.90;;;;;;5087003;28;20237;-91
2022/07/24 05:22:54;;;;;;;7.63;5.13;;;11.60;99.90;;;;;;5086159;28;20222;-91
2022/07/24 05:25:21;;;;;;;5.70;5.00;;;11.60;99.90;;;;;;5079353;28;20258;-92
2022/07/24 05:27:48;;;;;;;4.97;4.20;;;11.70;99.90;;;;;;5079792;28;20219;-91
2022/07/24 05:30:15;;;;;;;6.33;4.40;;;11.80;99.90;;;;;;5079704;28;20225;-91
2022/07/24 05:32:41;;;;;;;4.40;4.00;;;11.80;99.90;;;;;;5080480;28;20224;-91
2022/07/24 05:35:09;;;;;;;5.10;4.20;;;11.90;99.90;;;;;;5075124;28;20234;-90
2022/07/24 05:37:36;;;;;;;4.43;4.00;;;12.00;99.90;;;;;;5097532;28;20203;-91
2022/07/24 05:40:05;;;;;;;7.80;4.50;;;12.10;99.90;;;;;;5099260;28;20249;-91
2022/07/24 05:42:32;;;;;;;7.97;4.27;;;12.10;99.90;;;;;;5096369;28;20292;-91
2022/07/24 05:44:58;;;;;;;6.77;4.30;;;12.20;99.90;;;;;;5076086;28;20302;-90
2022/07/24 05:47:25;;;;;;;5.20;4.10;;;12.30;99.90;;;;;;5072131;28;20249;-90
2022/07/24 05:49:52;;;;;;;4.40;4.00;;;12.40;99.90;;;;;;5076318;28;20369;-89
2022/07/24 05:52:19;;;;;;;6.27;4.10;;;12.40;99.90;;;;;;5077634;28;20299;-91
2022/07/24 05:54:45;;;;;;;4.40;3.47;;;12.50;99.90;;;;;;5078942;28;20242;-94
2022/07/24 05:57:14;;;;;;;5.07;3.87;;;12.60;99.90;;;;;;5084673;28;20203;-94
2022/07/24 05:59:41;;;;;;;4.43;3.20;;;12.80;99.90;;;;;;5083415;28;20220;-94
2022/07/24 06:02:07;;;;;;;8.23;3.60;;;12.80;99.90;;;;;;5099628;28;20234;-94
2022/07/24 06:04:35;;;;;;;5.67;3.60;;;12.90;99.90;;;;;;5083397;28;20209;-93
2022/07/24 06:07:03;;;;;;;5.07;3.30;;;13.00;99.90;;;;;;5099656;28;20214;-96
2022/07/24 06:09:30;;;;;;;4.50;3.10;;;13.10;99.90;;;;;;5081782;28;20209;-95
2022/07/24 06:11:57;;;;;;;5.37;3.00;;;13.20;99.90;;;;;;5084727;28;20209;-94
2022/07/24 06:14:25;;;;;;;5.63;3.30;;;13.30;99.90;;;;;;5082140;28;20224;-94
2022/07/24 06:16:52;;;;;;;4.93;2.50;;;13.40;99.90;;;;;;5099930;28;20284;-94
2022/07/24 06:19:19;;;;;;;3.13;2.80;;;13.50;99.90;;;;;;5083100;28;20478;-95
2022/07/24 06:21:49;;;;;;;4.93;2.97;;;13.70;99.90;;;;;;5083230;28;20218;-94
2022/07/24 06:24:15;;;;;;;3.67;2.30;;;13.80;99.90;;;;;;5081722;28;20217;-95
2022/07/24 06:26:42;;;;;;;4.93;2.40;;;13.90;99.90;;;;;;5081618;28;20230;-93
2022/07/24 06:29:09;;;;;;;2.93;2.33;;;14.00;99.90;;;;;;5079780;28;20264;-91
2022/07/24 06:31:37;;;;;;;3.47;2.43;;;14.20;99.90;;;;;;5080391;28;20313;-92
2022/07/24 06:34:04;;;;;;;3.83;2.33;;;14.30;99.90;;;;;;5076922;28;20222;-91
2022/07/24 06:36:31;;;;;;;3.27;2.03;;;14.40;99.90;;;;;;5080854;28;20239;-91
2022/07/24 06:38:57;;;;;;;3.70;2.00;;;14.50;99.90;;;;;;5093765;28;20255;-91
2022/07/24 06:41:24;;;;;;;3.93;2.13;;;14.60;99.90;;;;;;5090479;28;20701;-91
2022/07/24 06:43:51;;;;;;;3.07;2.00;;;14.70;99.90;;;;;;5076564;28;20299;-91
2022/07/24 06:46:18;;;;;;;4.10;1.80;;;14.90;99.90;;;;;;5077407;28;20350;-92
2022/07/24 06:48:46;;;;;;;5.87;2.10;;;15.00;99.90;;;;;;5078316;28;20240;-91
2022/07/24 06:51:13;;;;;;;4.00;1.70;;;15.20;99.90;;;;;;5099542;28;20248;-91
2022/07/24 06:53:40;;;;;;;3.20;1.90;;;15.40;99.90;;;;;;5077634;28;20219;-91
2022/07/24 06:56:08;;;;;;;4.80;1.70;;;15.60;99.90;;;;;;5079864;28;20230;-92
2022/07/24 06:58:34;;;;;;;5.07;1.80;;;15.70;99.90;;;;;;5080179;28;20277;-93
2022/07/24 07:01:01;;;;;;;3.27;2.03;;;15.90;99.90;;;;;;5098010;27;20222;-91
2022/07/24 07:03:28;;;;;;;2.27;1.60;;;16.00;99.90;;;;;;5094923;28;20832;-90
2022/07/24 07:05:56;;;;;;;1.97;1.53;;;16.20;99.90;;;;;;5083082;28;20700;-91
2022/07/24 07:08:23;;;;;;;3.27;1.60;;;16.40;99.90;;;;;;5084109;28;20222;-91
2022/07/24 07:10:50;;;;;;;2.37;1.70;;;16.60;99.90;;;;;;5087295;28;20226;-92
2022/07/24 07:13:16;;;;;;;3.90;1.80;;;16.90;99.90;;;;;;5093800;28;20265;-91
2022/07/24 07:15:43;;;;;;;3.00;1.47;;;17.30;99.90;;;;;;5080725;28;20241;-93
2022/07/24 07:18:10;;;;;;;1.70;1.40;;;17.70;99.90;;;;;;5072787;28;20250;-91
2022/07/24 07:20:36;;;;;;;2.33;1.55;;;18.20;99.90;;;;;;5080419;28;20286;-90
2022/07/24 07:23:05;;;;;;;2.13;1.50;;;18.70;99.90;;;;;;5095996;28;20383;-90
2022/07/24 07:25:31;;;;;;;2.17;1.17;;;19.30;99.90;;;;;;5104163;28;20287;-91
2022/07/24 07:27:58;;;;;;;1.92;1.20;;;19.80;99.90;;;;;;5087546;28;20226;-91
2022/07/24 07:30:25;;;;;;;2.20;1.55;;;20.40;99.90;;;;;;5084830;28;20290;-91
2022/07/24 07:32:52;;;;;;;3.70;1.40;;;20.90;99.60;;;;;;5084640;28;20214;-91
2022/07/24 07:35:19;;;;;;;3.17;1.40;;;21.40;99.50;;;;;;5078018;28;20250;-91
2022/07/24 07:37:46;;;;;;;2.35;1.65;;;21.80;99.10;;;;;;5078397;28;20220;-91
2022/07/24 07:40:15;;;;;;;3.55;1.30;;;22.30;96.80;;;;;;5070336;28;20301;-91
2022/07/24 07:42:41;;;;;;;1.60;1.50;;;22.80;97.40;;;;;;5093809;28;20288;-91
2022/07/24 07:45:09;;;;;;;2.95;1.40;;;23.20;96.20;;;;;;5098083;28;20239;-91
2022/07/24 07:47:37;;;;;;;3.13;1.30;;;23.50;95.70;;;;;;5091814;28;20223;-92
2022/07/24 07:50:04;;;;;;;2.80;1.35;;;23.80;94.00;;;;;;5085287;28;20230;-95
2022/07/24 07:52:31;;;;;;;2.80;1.33;;;24.00;92.90;;;;;;5085515;28;20203;-92
2022/07/24 07:54:58;;;;;;;4.22;1.38;;;24.00;92.70;;;;;;5101938;28;20222;-93
2022/07/24 07:57:26;;;;;;;1.90;1.20;;;24.20;92.60;;;;;;5085649;28;20214;-92
2022/07/24 07:59:53;;;;;;;2.92;1.17;;;24.30;92.50;;;;;;5082179;28;20227;-91
2022/07/24 08:02:20;;;;;;;2.65;1.50;;;24.30;92.90;;;;;;5098877;28;20218;-91
2022/07/24 08:04:47;;;;;;;1.63;1.15;;;24.40;92.40;;;;;;5079465;28;20703;-92
2022/07/24 08:07:13;;;;;;;1.98;1.10;;;24.70;91.70;;;;;;5068963;28;20203;-91
2022/07/24 08:09:40;;;;;;;2.47;1.27;;;24.80;91.50;;;;;;5076935;28;20225;-93
2022/07/24 08:12:07;;;;;;;1.35;1.10;;;25.10;90.80;;;;;;5076929;28;20254;-92
2022/07/24 08:14:36;;;;;;;1.35;1.10;;;25.20;91.50;;;;;;5083184;28;20252;-93
2022/07/24 08:17:03;;;;;;;2.40;1.20;;;25.40;90.70;;;;;;5104483;28;20911;-92
2022/07/24 08:19:30;;;;;;;1.92;1.23;;;25.70;90.10;;;;;;5083076;28;20291;-92
2022/07/24 08:21:57;;;;;;;2.30;1.30;;;25.90;90.00;;;;;;5083427;28;20227;-92
2022/07/24 08:24:24;;;;;;;1.88;1.08;;;26.20;88.60;;;;;;5083206;28;22705;-93
2022/07/24 08:26:51;;;;;;;2.03;1.10;;;26.40;89.30;;;;;;5100854;28;20229;-92
2022/07/24 08:29:18;;;;;;;3.40;1.38;;;26.70;88.20;;;;;;5087468;28;20222;-92
2022/07/24 08:31:46;;;;;;;3.47;1.40;;;27.00;84.60;;;;;;5084734;28;20226;-92
2022/07/24 08:34:13;;;;;;;2.30;1.33;;;27.20;84.40;;;;;;5085943;28;20211;-92
2022/07/24 08:36:40;;;;;;;2.90;1.15;;;27.30;84.70;;;;;;5088773;28;20245;-93
2022/07/24 08:39:06;;;;;;;1.65;1.10;;;27.50;84.80;;;;;;5086475;28;20230;-92
2022/07/24 08:41:35;;;;;;;1.83;1.40;;;27.70;83.90;;;;;;5088081;28;20282;-92
2022/07/24 08:44:03;;;;;;;2.90;1.10;;;27.90;81.80;;;;;;5093430;28;20255;-92
2022/07/24 08:46:30;;;;;;;2.03;1.20;;;28.10;80.60;;;;;;5083256;28;20218;-93
2022/07/24 08:48:58;;;;;;;4.07;1.92;;;28.30;81.40;;;;;;5085214;28;20229;-92
2022/07/24 08:51:31;;;;;;;1.67;1.40;;;28.50;80.20;;;;;;5082940;28;20270;-92
2022/07/24 08:53:58;;;;;;;2.92;1.50;;;28.60;77.70;;;;;;5102437;27;20349;-92
2022/07/24 08:56:26;;;;;;;5.53;1.60;;;28.90;77.40;;;;;;5106296;28;20329;-93
2022/07/24 08:58:53;;;;;;;3.10;1.33;;;29.00;76.50;;;;;;5089993;28;20223;-92
2022/07/24 09:01:20;;;;;;;1.98;1.20;;;29.10;76.50;;;;;;5088843;28;20211;-92
2022/07/24 09:03:48;;;;;;;2.25;1.27;;;29.10;73.80;;;;;;5106083;28;20252;-92
2022/07/24 09:06:16;;;;;;;1.52;1.30;;;29.10;74.20;;;;;;5107861;28;20531;-92
2022/07/24 09:08:56;;;;;;;1.50;1.40;;;29.20;71.20;;;;;;5090063;28;20214;-92
2022/07/24 09:11:23;;;;;;;1.92;1.27;;;29.10;71.30;;;;;;5087399;28;20270;-93
2022/07/24 09:17:03;;;;;;;2.58;1.23;;;28.80;71.10;;;;;;5060035;28;20306;-82
2022/07/24 09:19:29;;;;;;;2.40;1.65;;;28.80;71.40;;;;;;5039648;28;20226;-83
2022/07/24 09:21:56;;;;;;;1.63;1.52;;;28.80;70.70;;;;;;5086783;28;20235;-83
2022/07/24 09:24:23;;;;;;;1.60;1.20;;;28.80;72.10;;;;;;5079506;28;20222;-83
2022/07/24 09:26:51;;;;;;;2.88;1.30;;;28.90;72.80;;;;;;5078984;28;20322;-82
2022/07/24 09:29:21;;;;;;;2.80;1.50;;;29.10;73.20;;;;;;5079203;28;20261;-82
2022/07/24 09:31:57;;;;;;;3.25;1.30;;;29.30;70.20;;;;;;5078814;28;20230;-83
2022/07/24 09:34:24;;;;;;;3.90;1.67;;;29.50;69.60;;;;;;5078790;28;20625;-83
2022/07/24 09:36:59;;;;;;;1.73;1.60;;;29.60;69.00;;;;;;5079178;28;20273;-83
2022/07/24 09:39:26;;;;;;;2.10;1.50;;;29.70;68.90;;;;;;5077675;28;20222;-83
2022/07/24 09:41:55;;;;;;;5.40;1.45;;;29.70;69.10;;;;;;5080617;28;20230;-83
2022/07/24 09:44:25;;;;;;;2.67;1.50;;;29.70;69.70;;;;;;5077791;28;20226;-83
2022/07/24 09:47:04;;;;;;;1.50;1.40;;;29.80;69.30;;;;;;5078682;28;20234;-84
2022/07/24 09:49:31;;;;;;;1.80;1.50;;;29.90;68.50;;;;;;5078134;28;20221;-83
2022/07/24 09:52:11;;;;;;;3.13;1.70;;;30.10;67.70;;;;;;5060041;28;20236;-83
2022/07/24 09:54:40;;;;;;;2.72;1.77;;;30.20;67.10;;;;;;5057578;28;20599;-82
2022/07/24 09:57:17;;;;;;;1.63;1.52;;;30.20;65.10;;;;;;5058322;28;20254;-84
2022/07/24 09:59:47;;;;;;;2.17;1.88;;;30.10;65.60;;;;;;5059628;28;20586;-82
2022/07/24 10:02:15;;;;;;;2.17;1.60;;;29.90;63.70;;;;;;5058652;28;20232;-84
2022/07/24 10:04:44;;;;;;;1.80;1.70;;;29.80;65.40;;;;;;5058773;28;20228;-83
2022/07/24 10:07:12;;;;;;;2.28;1.83;;;29.70;65.90;;;;;;5064575;28;20644;-83
2022/07/24 10:09:42;;;;;;;3.30;1.92;;;29.70;65.10;;;;;;5079696;28;20239;-83
2022/07/24 10:12:13;;;;;;;1.67;1.50;;;29.60;64.60;;;;;;5077508;28;20225;-84
2022/07/24 10:14:41;;;;;;;2.13;1.50;;;29.60;65.30;;;;;;5077614;28;20426;-84
2022/07/24 10:17:11;;;;;;;2.40;1.65;;;29.70;66.50;;;;;;5076755;28;20601;-83
2022/07/24 10:19:42;;;;;;;1.88;1.77;;;29.80;66.00;;;;;;5077909;28;20310;-83
2022/07/24 10:22:14;;;;;;;2.08;1.70;;;29.90;66.20;;;;;;5077720;28;20640;-84
2022/07/24 10:24:56;;;;;;;2.70;1.65;;;30.10;64.70;;;;;;5062899;28;20222;-84
2022/07/24 10:27:29;;;;;;;2.25;2.05;;;30.20;63.70;;;;;;5064386;28;20225;-83
2022/07/24 10:29:58;;;;;;;4.38;2.60;;;30.30;63.90;;;;;;5055277;28;20231;-84
2022/07/24 10:32:27;;;;;;;2.75;2.10;;;30.30;61.50;;;;;;5056836;28;20237;-83
2022/07/24 10:35:06;;;;;;;2.55;2.15;;;30.30;63.00;;;;;;5069510;28;20322;-82
2022/07/24 10:37:42;;;;;;;2.40;2.00;;;30.20;62.90;;;;;;5069452;28;20223;-83
2022/07/24 10:40:17;;;;;;;2.72;2.20;;;30.30;63.70;;;;;;5065936;28;20727;-82
2022/07/24 10:43:13;;;;;;;3.60;2.20;;;30.40;62.50;;;;;;5067248;28;20219;-82
2022/07/24 10:45:45;;;;;;;2.58;1.98;;;30.60;63.00;;;;;;5066704;28;20243;-82
2022/07/24 10:48:28;;;;;;;2.70;2.50;;;30.80;63.30;;;;;;5061422;28;20696;-82
2022/07/24 10:51:05;;;;;;;3.17;2.25;;;30.90;58.70;;;;;;5079401;28;20232;-83
2022/07/24 10:53:47;;;;;;;2.17;2.03;;;31.20;60.90;;;;;;5068719;28;20248;-83
2022/07/24 10:56:28;;;;;;;2.33;2.08;;;31.30;61.00;;;;;;5067772;28;20642;-83
2022/07/24 10:59:00;;;;;;;4.30;2.17;;;31.50;59.10;;;;;;5053794;28;20243;-82
2022/07/24 11:01:37;;;;;;;3.58;2.58;;;31.70;60.00;;;;;;5067454;28;20233;-82
2022/07/24 11:04:27;;;;;;;3.78;2.67;;;31.80;58.50;;;;;;5067617;28;20910;-82
2022/07/24 11:06:54;;;;;;;3.05;2.53;;;31.90;58.30;;;;;;5068707;28;20300;-82
2022/07/24 11:09:22;;;;;;;2.92;2.60;;;31.80;58.00;;;;;;5062727;28;20219;-83
2022/07/24 11:12:07;;;;;;;4.57;2.67;;;31.80;58.10;;;;;;5064927;28;20640;-83
2022/07/24 11:14:48;;;;;;;3.38;2.67;;;31.90;58.30;;;;;;5059979;28;20439;-83
2022/07/24 11:17:38;;;;;;;5.20;2.95;;;32.00;58.40;;;;;;5062282;28;20592;-83
2022/07/24 11:20:08;;;;;;;3.53;3.22;;;32.30;57.80;;;;;;5067507;28;20730;-83
2022/07/24 11:22:41;;;;;;;3.60;3.30;;;32.50;57.50;;;;;;5065191;28;20235;-83
2022/07/24 11:25:10;;;;;;;3.58;3.28;;;32.60;56.00;;;;;;5062613;28;20223;-84
2022/07/24 11:27:52;;;;;;;4.25;3.42;;;32.70;56.10;;;;;;5064087;28;20223;-83
2022/07/24 11:30:20;;;;;;;5.75;3.33;;;32.80;56.30;;;;;;5067540;28;20235;-83
2022/07/24 11:32:48;;;;;;;4.60;3.40;;;32.90;56.70;;;;;;5063360;28;20239;-83
2022/07/24 11:35:16;;;;;;;4.13;3.28;;;32.90;55.50;;;;;;5068966;28;20231;-82
2022/07/24 11:37:46;;;;;;;3.97;3.20;;;32.90;55.50;;;;;;5069770;28;20219;-83
2022/07/24 11:40:17;;;;;;;4.88;3.53;;;32.90;55.60;;;;;;5068003;28;20234;-85
2022/07/24 11:42:44;;;;;;;3.92;3.53;;;32.90;55.60;;;;;;5066850;28;20215;-82
2022/07/24 11:45:12;;;;;;;4.20;3.80;;;33.00;55.10;;;;;;5064830;28;20227;-83
2022/07/24 11:47:38;;;;;;;4.38;3.70;;;33.10;55.10;;;;;;5067083;28;20619;-82
2022/07/24 11:50:07;;;;;;;4.00;3.60;;;33.10;54.90;;;;;;5067349;28;20230;-84
2022/07/24 11:52:37;;;;;;;4.22;3.80;;;33.10;54.70;;;;;;5068209;28;20228;-83
2022/07/24 11:55:07;;;;;;;4.65;3.58;;;33.10;54.80;;;;;;5067009;28;20227;-84
2022/07/24 11:57:35;;;;;;;5.40;4.90;;;33.00;54.20;;;;;;5068568;28;20223;-83
2022/07/24 12:00:04;;;;;;;5.35;4.50;;;32.90;54.70;;;;;;5059165;28;20220;-82
2022/07/24 12:02:43;;;;;;;4.43;3.95;;;32.80;53.70;;;;;;5060360;28;20225;-82
2022/07/24 12:05:09;;;;;;;3.80;3.50;;;32.70;54.50;;;;;;5061875;28;20237;-82
2022/07/24 12:07:37;;;;;;;4.93;3.72;;;32.60;54.70;;;;;;5061376;28;20298;-82
2022/07/24 12:10:05;;;;;;;5.10;3.60;;;32.60;54.80;;;;;;5056707;28;20293;-82
2022/07/24 12:12:33;;;;;;;4.13;3.72;;;32.60;54.90;;;;;;5065254;28;20234;-83
2022/07/24 12:15:05;;;;;;;4.38;3.97;;;32.70;54.90;;;;;;5059677;28;20261;-82
2022/07/24 12:17:34;;;;;;;5.20;3.95;;;32.70;54.30;;;;;;5060568;28;20242;-82
2022/07/24 12:20:06;;;;;;;4.22;3.83;;;32.70;53.90;;;;;;5059718;28;20219;-82
2022/07/24 12:22:33;;;;;;;5.00;3.90;;;32.60;53.40;;;;;;5068207;28;20705;-84
2022/07/24 12:25:02;;;;;;;4.05;3.58;;;32.50;53.00;;;;;;5060877;28;20235;-83
2022/07/24 12:27:43;;;;;;;5.32;3.83;;;32.40;53.50;;;;;;5048066;28;20256;-82
2022/07/24 12:30:26;;;;;;;4.72;4.00;;;32.30;53.60;;;;;;5059144;28;20227;-83
2022/07/24 12:32:55;;;;;;;4.65;3.95;;;32.20;53.60;;;;;;5066245;28;20347;-83
2022/07/24 12:35:22;;;;;;;4.40;3.88;;;32.10;53.40;;;;;;5064825;28;20228;-83
2022/07/24 12:37:48;;;;;;;5.00;3.83;;;32.00;54.10;;;;;;5066368;28;20647;-82
2022/07/24 12:40:29;;;;;;;4.22;3.83;;;32.10;54.60;;;;;;5060788;28;20232;-81
2022/07/24 12:43:01;;;;;;;5.68;3.50;;;32.00;53.80;;;;;;5047488;28;20660;-81
2022/07/24 12:45:28;;;;;;;4.18;3.78;;;31.90;54.30;;;;;;5044842;28;20247;-82
2022/07/24 12:48:17;;;;;;;3.88;3.40;;;31.80;53.60;;;;;;5046278;28;20230;-82
2022/07/24 12:51:00;;;;;;;4.28;3.67;;;31.70;54.30;;;;;;5062700;28;20282;-82
2022/07/24 12:53:28;;;;;;;4.57;3.40;;;31.60;54.50;;;;;;5051936;28;20362;-83
2022/07/24 12:56:10;;;;;;;4.47;3.75;;;31.60;53.90;;;;;;5066058;28;20253;-82
2022/07/24 12:58:58;;;;;;;4.32;3.63;;;31.50;53.40;;;;;;5067786;28;20250;-82